Latest Coastal Weather Observations for Bowen Airport AWS

IDQ60701

Issued at 2:52 am EST Friday 5 March 2021 (issued every 10 minutes, with the page automatically refreshed every 10 minutes)

About coastal observations | Map of coastal stations | Coastal observations for QLD | Marine services | Other Formats
Station Details ID: 033327 Name: BOWEN AIRPORT AWS Lat: -20.02 Lon: 148.21 Height: 5.9 m
Data from the previous 72 hours. | See also: Recent months at Bowen Airport AWS
Date/Time
EST
Wind Sea
Height
m
Swell Vis
km
Cloud Weather Temp
°C
Press
MSL
hPa
Rain since
9am
mm
Dir  Spd
kts
Gust
kts
Height
m
Period
s
Dir
05/02:30am SSE 12 16 - - - - - - - 25.4 1003.7 0.0
05/02:00am SSE 12 16 - - - - - - - 25.6 1004.0 0.0
05/01:30am SSE 11 16 - - - - - - - 25.3 1004.0 0.0
05/01:00am SSE 10 14 - - - - - - - 25.2 1004.2 0.0
05/12:30am SSE 9 14 - - - - - - - 25.1 1004.3 0.0
05/12:00am SSE 11 15 - - - - - - - 25.3 1004.6 0.0
 
Date/Time
EST
Wind Sea
Height
m
Swell Vis
km
Cloud Weather Temp
°C
Press
MSL
hPa
Rain since
9am
mm
Dir  Spd
kts
Gust
kts
Height
m
Period
s
Dir
04/11:30pm SSE 12 18 - - - - - - - 25.3 1004.8 0.0
04/11:00pm SSE 10 14 - - - - - - - 25.1 1004.8 0.0
04/10:30pm SSE 12 17 - - - - - - - 25.0 1004.8 0.0
04/10:00pm SE 11 15 - - - - - - - 24.7 1004.8 0.0
04/09:30pm SE 9 13 - - - - - - - 24.5 1004.9 0.0
04/09:00pm SE 15 20 - - - - - - - 24.8 1004.6 0.0
04/08:30pm SE 17 22 - - - - - - - 24.8 1004.2 0.0
04/08:13pm SE 18 28 - - - - - - - 24.6 1003.9 0.0
04/08:00pm SE 22 29 - - - - - - - 24.7 1004.1 0.0
04/07:37pm SE 19 30 - - - - - - - 24.8 1003.8 0.0
04/07:30pm SE 21 27 - - - - - - - 24.9 1003.8 0.0
04/07:00pm SE 24 31 - - - - - - - 25.1 1003.5 0.0
04/06:46pm SE 20 31 - - - - - - - 25.8 1003.5 0.0
04/06:30pm SE 18 25 - - - - - - - 25.8 1003.4 0.0
04/06:00pm SE 19 24 - - - - - - - 26.4 1003.1 0.0
04/05:42pm SE 18 30 - - - - - - - 26.5 1002.8 0.0
04/05:30pm SE 17 23 - - - - - - - 26.4 1002.7 0.0
04/05:00pm SE 19 29 - - - - - - - 26.3 1002.7 0.0
04/04:30pm SE 23 32 - - - - - - - 27.3 1002.4 0.0
04/04:01pm SE 21 32 - - - - - - - 27.8 1002.0 0.0
04/04:00pm SE 20 30 - - - - - - - 27.9 1002.0 0.0
04/03:30pm SE 19 27 - - - - - - - 29.2 1001.8 0.0
04/03:00pm SE 19 26 - - - - - - - 30.0 1001.9 0.0
04/02:30pm SE 19 25 - - - - - - - 30.8 1001.8 0.0
04/02:02pm SE 18 28 - - - - - - - 31.2 1001.8 0.0
04/02:00pm SE 18 24 - - - - - - - 30.8 1001.9 0.0
04/01:30pm SE 17 22 - - - - - - - 31.5 1002.1 0.0
04/01:00pm SE 18 22 - - - - - - - 31.1 1002.5 0.0
04/12:30pm SE 16 21 - - - - - - - 31.4 1002.8 0.0
04/12:00pm SE 17 23 - - - - - - - 30.8 1003.2 0.0
04/11:30am SE 17 23 - - - - - - - 30.5 1003.6 0.0
04/11:00am SE 17 21 - - - - - - - 30.1 1004.0 0.0
04/10:30am SE 15 20 - - - - - - - 30.3 1004.2 0.0
04/10:00am SE 15 21 - - - - - - - 29.4 1004.3 0.0
04/09:30am SE 13 18 - - - - - - - 28.2 1004.4 0.0
04/09:00am SE 14 19 - - - - - - - 27.6 1004.5 0.0
04/08:30am SE 14 19 - - - - - - - 27.6 1004.5 0.0
04/08:00am SSE 14 22 - - - - - - - 27.0 1004.0 0.0
04/07:30am SSE 15 19 - - - - - - - 27.0 1003.7 0.0
04/07:00am SSE 13 18 - - - - - - - 26.2 1003.6 0.0
04/06:30am SSE 12 17 - - - - - - - 25.5 1003.2 0.0
04/06:00am SSE 13 17 - - - - - - - 25.4 1003.1 0.0
04/05:30am SE 15 20 - - - - - - - 25.7 1002.8 0.0
04/05:00am SSE 14 18 - - - - - - - 25.6 1002.7 0.0
04/04:30am SE 14 18 - - - - - - - 25.6 1002.6 0.0
04/04:00am SE 11 15 - - - - - - - 25.4 1002.6 0.0
04/03:30am SSE 12 16 - - - - - - - 25.4 1002.5 0.0
04/03:00am SSE 13 18 - - - - - - - 25.6 1002.4 0.0
04/02:30am SE 12 16 - - - - - - - 25.7 1002.7 0.0
04/02:00am SE 12 15 - - - - - - - 25.7 1003.0 0.0
04/01:30am SE 13 17 - - - - - - - 25.9 1003.4 0.0
04/01:00am SE 13 18 - - - - - - - 26.0 1003.7 0.0
04/12:30am SE 13 18 - - - - - - - 26.1 1004.1 0.0
04/12:00am SE 11 16 - - - - - - - 26.1 1004.2 0.0
 
Date/Time
EST
Wind Sea
Height
m
Swell Vis
km
Cloud Weather Temp
°C
Press
MSL
hPa
Rain since
9am
mm
Dir  Spd
kts
Gust
kts
Height
m
Period
s
Dir
03/11:30pm SE 13 18 - - - - - - - 26.3 1004.3 0.0
03/11:00pm SE 14 19 - - - - - - - 26.3 1004.3 0.0
03/10:30pm SE 11 16 - - - - - - - 26.5 1004.4 0.0
03/10:00pm SE 11 15 - - - - - - - 26.5 1004.5 0.0
03/09:30pm SE 14 18 - - - - - - - 26.8 1004.5 0.0
03/09:00pm SE 16 21 - - - - - - - 26.8 1004.5 0.0
03/08:30pm SE 13 17 - - - - - - - 26.8 1004.0 0.0
03/08:00pm SE 13 17 - - - - - - - 26.8 1004.0 0.0
03/07:30pm SSE 10 15 - - - - - - - 26.9 1004.0 0.0
03/07:00pm SSE 10 13 - - - - - - - 27.4 1003.8 0.0
03/06:30pm SE 13 17 - - - - - - - 28.1 1003.5 0.0
03/06:00pm SE 16 20 - - - - - - - 28.6 1003.4 0.0
03/05:30pm SE 15 21 - - - - - - - 29.0 1003.4 0.0
03/05:00pm SE 16 21 - - - - - - - 29.4 1003.3 0.0
03/04:30pm SE 16 21 - - - - - - - 30.0 1003.2 0.0
03/04:00pm SE 20 25 - - - - - - - 30.6 1002.8 0.0
03/03:30pm SE 19 26 - - - - - - - 30.9 1002.8 0.0
03/03:00pm SE 20 25 - - - - - - - 30.7 1003.0 0.0
03/02:30pm SE 17 22 - - - - - - - 30.8 1003.4 0.0
03/02:00pm SE 17 23 - - - - - - - 30.8 1003.7 0.0
03/01:30pm SE 19 25 - - - - - - - 31.1 1004.0 0.0
03/01:00pm SE 17 22 - - - - - - - 30.4 1004.5 0.0
03/12:30pm SE 17 23 - - - - - - - 30.0 1004.7 0.0
03/12:00pm SE 18 25 - - - - - - - 29.8 1005.0 0.0
03/11:30am SE 17 23 - - - - - - - 30.7 1005.4 0.0
03/11:00am SE 18 24 - - - - - - - 30.2 1005.6 0.0
03/10:30am SE 16 21 - - - - - - - 29.9 1005.8 0.0
03/10:00am SE 15 21 - - - - - - - 29.4 1006.0 0.0
03/09:30am SSE 14 20 - - - - - - - 28.5 1006.2 0.0
03/09:00am SE 14 19 - - - - - - - 28.1 1006.3 0.6
03/08:30am SSE 13 18 - - - - - - - 28.4 1006.2 0.6
03/08:00am SSE 14 19 - - - - - - - 27.4 1006.1 0.6
03/07:30am SSE 13 19 - - - - - - - 26.8 1005.6 0.6
03/07:00am SSE 12 16 - - - - - - - 26.1 1005.1 0.6
03/06:30am SSE 12 16 - - - - - - - 25.6 1004.7 0.6
03/06:00am SSE 12 17 - - - - - - - 25.5 1004.3 0.6
03/05:30am SSE 11 15 - - - - - - - 25.4 1004.2 0.6
03/05:00am SSE 11 15 - - - - - - - 25.6 1004.0 0.6
03/04:30am SE 11 14 - - - - - - - 25.7 1003.9 0.6
03/04:00am SE 12 16 - - - - - - - 25.9 1003.8 0.6
03/03:30am SSE 10 13 - - - - - - - 25.5 1003.6 0.6
03/03:00am SSE 10 13 - - - - - - - 25.3 1003.6 0.6
03/02:30am SSE 9 12 - - - - - - - 25.1 1003.9 0.6
03/02:00am SSE 9 11 - - - - - - - 24.9 1004.2 0.6
03/01:30am SSE 9 11 - - - - - - - 25.1 1004.3 0.6
03/01:00am SE 8 11 - - - - - - - 25.3 1004.7 0.6
03/12:30am SE 8 10 - - - - - - - 25.6 1004.8 0.6
03/12:00am SE 11 14 - - - - - - - 26.0 1005.1 0.6
 
Date/Time
EST
Wind Sea
Height
m
Swell Vis
km
Cloud Weather Temp
°C
Press
MSL
hPa
Rain since
9am
mm
Dir  Spd
kts
Gust
kts
Height
m
Period
s
Dir
02/11:30pm SE 12 16 - - - - - - - 26.3 1005.3 0.6
02/11:00pm SE 14 18 - - - - - - - 26.6 1005.2 0.6
02/10:30pm SE 14 17 - - - - - - - 26.4 1005.2 0.6
02/10:00pm SE 12 16 - - - - - - - 26.6 1005.4 0.6
02/09:30pm SE 12 17 - - - - - - - 26.5 1005.3 0.6
02/09:00pm SE 13 19 - - - - - - - 26.5 1004.9 0.6
02/08:30pm SE 13 19 - - - - - - - 26.5 1004.6 0.6
02/08:00pm SE 11 14 - - - - - - - 26.2 1004.4 0.6
02/07:30pm SE 10 15 - - - - - - - 26.1 1004.1 0.6
02/07:00pm SSE 8 10 - - - - - - - 25.6 1004.1 0.6
02/06:30pm SSE 9 13 - - - - - - - 25.6 1003.9 0.6
02/06:00pm SSE 8 11 - - - - - - Recent precip. 25.5 1003.8 0.4
02/05:30pm SE 11 14 - - - - - - - 25.9 1003.6 0.4
02/05:00pm SE 16 20 - - - - - - - 26.1 1003.5 0.2
02/04:30pm SE 16 21 - - - - - - - 26.5 1003.3 0.0
02/04:00pm SE 12 16 - - - - - - - 27.1 1003.3 0.0
02/03:30pm SE 16 21 - - - - - - - 27.4 1003.4 0.0
02/03:00pm SE 18 26 - - - - - - - 28.3 1003.3 0.0
02/02:30pm SE 13 19 - - - - - - - 28.0 1003.3 0.0
02/02:22pm SE 16 26 - - - - - - - 27.3 1003.3 0.0
02/02:00pm SE 18 24 - - - - - - - 28.5 1003.5 0.0
02/01:30pm SE 16 21 - - - - - - - 28.5 1003.6 0.0
02/01:00pm SE 17 27 - - - - - - - 28.6 1003.8 0.0
02/12:55pm SE 17 27 - - - - - - - 28.8 1003.8 0.0
02/12:30pm SE 18 23 - - - - - - - 28.9 1003.9 0.0
02/12:00pm SE 18 23 - - - - - - - 28.7 1004.1 0.0
02/11:30am SE 17 24 - - - - - - - 29.1 1004.4 0.0
02/11:00am SSE 17 22 - - - - - - - 28.9 1004.6 0.0
02/10:30am SE 16 23 - - - - - - - 28.8 1004.8 0.0
02/10:00am SSE 18 24 - - - - - - - 28.1 1005.3 0.0
02/09:30am SSE 17 22 - - - - - - - 28.1 1005.2 0.0
02/09:00am SSE 15 20 - - - - - - - 27.7 1005.1 3.2
02/08:30am SSE 12 17 - - - - - - - 27.3 1004.9 3.2
02/08:00am SSE 13 16 - - - - - - - 26.9 1004.8 3.2
02/07:30am SSE 10 14 - - - - - - - 26.5 1004.7 3.2
02/07:00am SSE 10 13 - - - - - - - 26.3 1004.4 3.2
02/06:30am SSE 10 13 - - - - - - - 26.1 1004.1 3.2
02/06:00am SSE 10 13 - - - - - - - 26.0 1003.6 3.2
02/05:30am SSE 9 12 - - - - - - - 25.8 1003.6 3.2
02/05:00am SSE 8 10 - - - - - - - 25.7 1003.2 3.2
02/04:30am SSE 7 10 - - - - - - - 25.6 1003.3 3.2
02/04:00am SSE 6 7 - - - - - - - 25.2 1003.0 3.2
02/03:30am SSE 8 11 - - - - - - - 25.4 1002.7 3.2
02/03:00am SE 8 11 - - - - - - - 25.6 1003.1 3.2

Other formats

Comma delimited format used in spreadsheet applications
http://www.bom.gov.au/fwo/IDQ60701/IDQ60701.94383.axf

JavaScript Object Notation format (JSON) in row-major order
http://www.bom.gov.au/fwo/IDQ60701/IDQ60701.94383.json

Data quality

Most of these data are generated automatically and are frequently updated. Quality checks on data are not normally performed. It is possible for incorrect values to appear. Refer to information at About Latest Weather Observations and please check the disclaimer before using these data.